createdAt,value
2023-03-15T00:02:31.035Z,955.38
2023-03-15T00:07:33.163Z,955.41
2023-03-15T00:12:34.944Z,955.51
2023-03-15T00:17:36.209Z,955.59
2023-03-15T00:22:38.293Z,955.67
2023-03-15T00:27:39.559Z,955.67
2023-03-15T00:32:41.554Z,955.62
2023-03-15T00:37:42.950Z,955.69
2023-03-15T00:42:44.573Z,955.79
2023-03-15T00:47:46.227Z,955.84
2023-03-15T00:52:48.080Z,955.84
2023-03-15T00:57:50.184Z,955.94
2023-03-15T01:02:52.327Z,955.89
2023-03-15T01:07:54.132Z,955.86
2023-03-15T01:12:55.445Z,955.9
2023-03-15T01:17:56.710Z,955.82
2023-03-15T01:22:57.973Z,955.8
2023-03-15T01:27:59.255Z,955.76
2023-03-15T01:33:00.696Z,955.74
2023-03-15T01:38:02.633Z,955.75
2023-03-15T01:43:03.846Z,955.66
2023-03-15T01:48:05.215Z,955.87
2023-03-15T01:53:07.033Z,955.96
2023-03-15T01:58:08.385Z,955.92
2023-03-15T02:03:09.820Z,956.04
2023-03-15T02:08:12.005Z,956.15
2023-03-15T02:13:12.990Z,956.14
2023-03-15T02:18:15.072Z,956.15
2023-03-15T02:23:17.277Z,956.24
2023-03-15T02:28:17.945Z,956.3
2023-03-15T02:33:19.952Z,956.43
2023-03-15T02:38:21.774Z,956.6
2023-03-15T02:43:22.997Z,956.78
2023-03-15T02:48:24.783Z,957.02
2023-03-15T02:53:26.750Z,957.1
2023-03-15T02:58:28.416Z,957.24
2023-03-15T03:03:30.223Z,957.53
2023-03-15T03:08:32.272Z,957.65
2023-03-15T03:13:34.252Z,957.9
2023-03-15T03:18:35.945Z,958.09
2023-03-15T03:23:37.726Z,958.29
2023-03-15T03:28:39.730Z,958.41
2023-03-15T03:33:41.460Z,958.63
2023-03-15T03:38:43.494Z,958.86
2023-03-15T03:43:45.219Z,959.04
2023-03-15T03:48:46.429Z,959.13
2023-03-15T03:53:47.901Z,959.29
2023-03-15T03:58:49.479Z,959.4
2023-03-15T04:03:51.504Z,959.54
2023-03-15T04:08:53.233Z,959.65
2023-03-15T04:13:54.362Z,959.87
2023-03-15T04:18:55.868Z,959.94
2023-03-15T04:23:57.775Z,960.06
2023-03-15T04:28:59.079Z,960.16
2023-03-15T04:34:00.707Z,960.25
2023-03-15T04:39:02.384Z,960.43
2023-03-15T04:44:03.642Z,960.6
2023-03-15T04:49:05.215Z,960.66
2023-03-15T04:54:06.522Z,960.75
2023-03-15T04:59:08.296Z,960.77
2023-03-15T05:04:09.555Z,960.87
2023-03-15T05:09:11.068Z,960.99
2023-03-15T05:14:12.773Z,961.09
2023-03-15T05:19:14.237Z,961.19
2023-03-15T05:24:15.775Z,961.3
2023-03-15T05:29:17.765Z,961.41
2023-03-15T05:34:19.474Z,961.49
2023-03-15T05:39:21.335Z,961.65
2023-03-15T05:44:23.432Z,961.74
2023-03-15T05:49:24.745Z,961.81
2023-03-15T05:54:26.373Z,961.86
2023-03-15T05:59:28.400Z,961.99
2023-03-15T06:04:30.626Z,962.16
2023-03-15T06:09:32.144Z,962.21
2023-03-15T06:14:33.528Z,962.28
2023-03-15T06:19:36.825Z,962.38
2023-03-15T06:29:37.682Z,962.44
2023-03-15T06:34:39.157Z,962.45
2023-03-15T06:49:44.111Z,962.63
2023-03-15T06:59:48.215Z,962.59
2023-03-15T07:04:50.252Z,962.6
2023-03-15T07:19:56.753Z,962.65
2023-03-15T07:29:58.587Z,962.86
2023-03-15T07:35:00.221Z,962.99
2023-03-15T07:45:06.079Z,963.07
2023-03-15T07:50:05.460Z,962.97
2023-03-15T07:55:07.065Z,963.01
2023-03-15T08:00:09.021Z,963.04
2023-03-15T08:05:10.861Z,962.97
2023-03-15T08:10:12.243Z,963.02
2023-03-15T08:15:14.422Z,963.04
2023-03-15T08:20:15.967Z,963.02
2023-03-15T08:25:17.928Z,963.05
2023-03-15T08:30:19.324Z,963.1
2023-03-15T08:35:21.461Z,963.08
2023-03-15T08:40:22.952Z,963.11
2023-03-15T08:45:24.687Z,963.03
2023-03-15T08:50:25.940Z,962.97
2023-03-15T08:55:27.411Z,962.98
2023-03-15T09:00:29.438Z,962.94
2023-03-15T09:05:30.511Z,962.97
2023-03-15T09:10:32.627Z,962.97
2023-03-15T09:15:34.389Z,962.97
2023-03-15T09:20:35.707Z,962.99
2023-03-15T09:25:37.137Z,963.05
2023-03-15T09:30:38.734Z,963.09
2023-03-15T09:35:40.244Z,963.08
2023-03-15T09:40:42.450Z,963.12
2023-03-15T09:45:44.379Z,963.13
2023-03-15T09:50:45.989Z,963.12
2023-03-15T09:55:47.880Z,963.21
2023-03-15T10:00:49.320Z,963.16
2023-03-15T10:05:50.783Z,963.29
2023-03-15T10:10:52.023Z,963.29
2023-03-15T10:15:53.767Z,963.26
2023-03-15T10:20:55.822Z,963.23
2023-03-15T10:25:57.597Z,963.19
2023-03-15T10:30:59.578Z,963.22
2023-03-15T10:36:10.857Z,963.22
2023-03-15T10:41:03.537Z,963.27
2023-03-15T10:46:05.129Z,963.26
2023-03-15T10:51:06.873Z,963.12
2023-03-15T10:56:08.928Z,963.19
2023-03-15T11:01:10.093Z,963.15
2023-03-15T11:06:12.224Z,963.17
2023-03-15T11:11:14.070Z,963.09
2023-03-15T11:16:15.576Z,963.06
2023-03-15T11:21:17.569Z,963
2023-03-15T11:26:31.352Z,963.02
2023-03-15T11:31:21.068Z,963.01
2023-03-15T11:36:22.229Z,962.92
2023-03-15T11:41:23.935Z,962.9
2023-03-15T11:46:25.192Z,962.79
2023-03-15T11:51:28.413Z,962.78
2023-03-15T11:56:28.068Z,962.8
2023-03-15T12:01:29.566Z,962.65
2023-03-15T12:06:31.299Z,962.69
2023-03-15T12:11:33.352Z,962.59
2023-03-15T12:16:35.173Z,962.58
2023-03-15T12:21:36.703Z,962.5
2023-03-15T12:26:38.267Z,962.55
2023-03-15T12:31:40.196Z,962.51
2023-03-15T12:36:41.956Z,962.43
2023-03-15T12:41:43.809Z,962.44
2023-03-15T12:46:45.443Z,962.45
2023-03-15T12:51:47.104Z,962.43
2023-03-15T12:56:49.038Z,962.43
2023-03-15T13:01:51.211Z,962.44
2023-03-15T13:06:52.374Z,962.4
2023-03-15T13:11:54.377Z,962.44
2023-03-15T13:16:56.453Z,962.44
2023-03-15T13:21:57.979Z,962.51
2023-03-15T13:26:59.459Z,962.57
2023-03-15T13:32:00.682Z,962.51
2023-03-15T13:37:02.265Z,962.42
2023-03-15T13:37:08.543Z,962.44
2023-03-15T13:42:10.420Z,962.43
2023-03-15T13:47:12.285Z,962.44
2023-03-15T13:52:13.562Z,962.42
2023-03-15T13:57:14.998Z,962.46
2023-03-15T14:02:16.535Z,962.5
2023-03-15T14:07:18.572Z,962.46
2023-03-15T14:12:19.970Z,962.44
2023-03-15T14:17:22.033Z,962.53
2023-03-15T14:22:23.612Z,962.53
2023-03-15T14:27:25.038Z,962.48
2023-03-15T14:32:26.245Z,962.53
2023-03-15T14:37:27.511Z,962.51
2023-03-15T14:42:28.757Z,962.55
2023-03-15T14:47:30.216Z,962.61
2023-03-15T14:52:32.183Z,962.65
2023-03-15T14:57:34.094Z,962.73
2023-03-15T15:02:35.370Z,962.8
2023-03-15T15:07:36.658Z,962.75
2023-03-15T15:12:38.297Z,962.77
2023-03-15T15:17:39.923Z,962.79
2023-03-15T15:22:41.331Z,962.79
2023-03-15T15:27:43.207Z,962.77
2023-03-15T15:32:44.469Z,962.83
2023-03-15T15:37:45.917Z,962.91
2023-03-15T15:42:47.222Z,962.93
2023-03-15T15:47:48.922Z,963.08
2023-03-15T15:52:50.753Z,963.26
2023-03-15T15:57:52.671Z,963.37
2023-03-15T16:02:54.285Z,963.39
2023-03-15T16:07:55.580Z,963.38
2023-03-15T16:12:57.299Z,963.45
2023-03-15T16:18:00.063Z,963.47
2023-03-15T16:22:59.885Z,963.49
2023-03-15T16:28:01.431Z,963.54
2023-03-15T16:33:03.205Z,963.54
2023-03-15T16:38:04.806Z,963.52
2023-03-15T16:43:06.795Z,963.63
2023-03-15T16:48:08.695Z,963.67
2023-03-15T16:53:10.135Z,963.79
2023-03-15T16:58:12.186Z,963.89
2023-03-15T17:03:13.747Z,963.98
2023-03-15T17:08:14.904Z,964.09
2023-03-15T17:13:16.725Z,964.19
2023-03-15T17:18:18.444Z,964.28
2023-03-15T17:23:20.091Z,964.36
2023-03-15T17:28:22.096Z,964.37
2023-03-15T17:33:23.811Z,964.46
2023-03-15T17:38:25.322Z,964.57
2023-03-15T17:43:26.615Z,964.51
2023-03-15T17:48:28.473Z,964.54
2023-03-15T17:53:29.953Z,964.51
2023-03-15T17:58:31.339Z,964.58
2023-03-15T18:03:32.918Z,964.66
2023-03-15T18:08:34.954Z,964.73
2023-03-15T18:13:36.682Z,964.8
2023-03-15T18:18:38.323Z,964.88
2023-03-15T18:23:40.384Z,964.95
2023-03-15T18:28:41.727Z,964.99
2023-03-15T18:33:42.930Z,965.05
2023-03-15T18:38:44.972Z,965.04
2023-03-15T18:43:46.655Z,965.09
2023-03-15T18:48:48.378Z,965.16
2023-03-15T18:53:49.718Z,965.21
2023-03-15T18:58:51.653Z,965.21
2023-03-15T19:03:53.716Z,965.24
2023-03-15T19:08:55.688Z,965.27
2023-03-15T19:13:57.535Z,965.29
2023-03-15T19:18:59.400Z,965.31
2023-03-15T19:24:00.696Z,965.3
2023-03-15T19:29:02.462Z,965.33
2023-03-15T19:34:03.998Z,965.35
2023-03-15T19:39:05.513Z,965.43
2023-03-15T19:44:07.033Z,965.51
2023-03-15T19:49:09.119Z,965.58
2023-03-15T19:54:10.313Z,965.57
2023-03-15T19:59:12.023Z,965.61
2023-03-15T20:04:13.460Z,965.71
2023-03-15T20:09:15.448Z,965.79
2023-03-15T20:14:16.810Z,965.73
2023-03-15T20:19:18.938Z,965.85
2023-03-15T20:24:20.173Z,965.91
2023-03-15T20:29:21.950Z,965.97
2023-03-15T20:34:23.949Z,966.06
2023-03-15T20:39:25.545Z,966.11
2023-03-15T20:44:27.234Z,966.11
2023-03-15T20:49:29.400Z,966.11
2023-03-15T20:54:30.102Z,966.09
2023-03-15T20:59:31.504Z,966.14
2023-03-15T21:04:33.588Z,966.18
2023-03-15T21:09:35.341Z,966.19
2023-03-15T21:24:49.498Z,966.3
2023-03-15T21:39:46.069Z,966.26
2023-03-15T21:54:51.002Z,966.27
2023-03-15T22:04:53.990Z,966.27
2023-03-15T22:09:55.957Z,966.27
2023-03-15T22:25:00.993Z,966.26
2023-03-15T22:35:04.721Z,966.3
2023-03-15T22:40:06.099Z,966.35
2023-03-15T22:45:07.491Z,966.36
2023-03-15T22:50:08.845Z,966.39
2023-03-15T22:55:11.014Z,966.29
2023-03-15T23:00:12.820Z,966.36
2023-03-15T23:05:14.286Z,966.39
2023-03-15T23:10:15.848Z,966.41
2023-03-15T23:15:32.994Z,966.42
2023-03-15T23:20:19.324Z,966.41
2023-03-15T23:25:20.621Z,966.41
2023-03-15T23:30:22.788Z,966.47
2023-03-15T23:35:24.582Z,966.41
2023-03-15T23:40:26.212Z,966.39
2023-03-15T23:45:27.296Z,966.49
2023-03-15T23:50:28.774Z,966.56
2023-03-15T23:55:29.740Z,966.5
